sensor_id;sensor_type;location;lat;lon;timestamp;P1;durP1;ratioP1;P2;durP2;ratioP2
6638;SDS011;3355;52.882;8.430;2023-04-07T00:01:37;14.93;;;12.37;;
6638;SDS011;3355;52.882;8.430;2023-04-07T00:04:06;12.77;;;10.87;;
6638;SDS011;3355;52.882;8.430;2023-04-07T00:06:33;12.60;;;10.90;;
6638;SDS011;3355;52.882;8.430;2023-04-07T00:09:01;15.93;;;11.83;;
6638;SDS011;3355;52.882;8.430;2023-04-07T00:11:28;13.40;;;12.00;;
6638;SDS011;3355;52.882;8.430;2023-04-07T00:13:55;14.87;;;10.97;;
6638;SDS011;3355;52.882;8.430;2023-04-07T00:16:22;12.27;;;10.43;;
6638;SDS011;3355;52.882;8.430;2023-04-07T00:18:49;14.23;;;11.40;;
6638;SDS011;3355;52.882;8.430;2023-04-07T00:21:18;14.57;;;10.83;;
6638;SDS011;3355;52.882;8.430;2023-04-07T00:23:45;13.30;;;10.67;;
6638;SDS011;3355;52.882;8.430;2023-04-07T00:26:13;13.73;;;11.43;;
6638;SDS011;3355;52.882;8.430;2023-04-07T00:28:40;12.00;;;9.40;;
6638;SDS011;3355;52.882;8.430;2023-04-07T00:31:07;14.27;;;10.20;;
6638;SDS011;3355;52.882;8.430;2023-04-07T00:33:37;13.23;;;10.20;;
6638;SDS011;3355;52.882;8.430;2023-04-07T00:36:04;15.20;;;11.00;;
6638;SDS011;3355;52.882;8.430;2023-04-07T00:38:32;15.97;;;11.63;;
6638;SDS011;3355;52.882;8.430;2023-04-07T00:41:04;11.30;;;10.10;;
6638;SDS011;3355;52.882;8.430;2023-04-07T00:43:33;14.67;;;11.30;;
6638;SDS011;3355;52.882;8.430;2023-04-07T00:45:59;13.70;;;10.07;;
6638;SDS011;3355;52.882;8.430;2023-04-07T00:48:27;16.30;;;10.27;;
6638;SDS011;3355;52.882;8.430;2023-04-07T00:50:54;11.03;;;9.50;;
6638;SDS011;3355;52.882;8.430;2023-04-07T00:53:21;13.93;;;10.50;;
6638;SDS011;3355;52.882;8.430;2023-04-07T00:55:48;12.10;;;8.93;;
6638;SDS011;3355;52.882;8.430;2023-04-07T00:58:15;14.60;;;11.03;;
6638;SDS011;3355;52.882;8.430;2023-04-07T01:00:44;13.60;;;11.20;;
6638;SDS011;3355;52.882;8.430;2023-04-07T01:03:17;12.30;;;9.70;;
6638;SDS011;3355;52.882;8.430;2023-04-07T01:05:48;12.77;;;10.20;;
6638;SDS011;3355;52.882;8.430;2023-04-07T01:08:19;11.40;;;9.53;;
6638;SDS011;3355;52.882;8.430;2023-04-07T01:10:48;14.83;;;9.83;;
6638;SDS011;3355;52.882;8.430;2023-04-07T01:13:20;11.87;;;10.10;;
6638;SDS011;3355;52.882;8.430;2023-04-07T01:15:50;13.73;;;10.90;;
6638;SDS011;3355;52.882;8.430;2023-04-07T01:18:21;16.10;;;12.23;;
6638;SDS011;3355;52.882;8.430;2023-04-07T01:20:51;16.27;;;12.20;;
6638;SDS011;3355;52.882;8.430;2023-04-07T01:23:20;14.80;;;11.53;;
6638;SDS011;3355;52.882;8.430;2023-04-07T01:25:53;13.50;;;11.40;;
6638;SDS011;3355;52.882;8.430;2023-04-07T01:28:32;15.10;;;12.10;;
6638;SDS011;3355;52.882;8.430;2023-04-07T01:31:11;16.43;;;12.57;;
6638;SDS011;3355;52.882;8.430;2023-04-07T01:33:40;15.07;;;11.53;;
6638;SDS011;3355;52.882;8.430;2023-04-07T01:36:09;13.37;;;11.80;;
6638;SDS011;3355;52.882;8.430;2023-04-07T01:38:37;18.03;;;12.87;;
6638;SDS011;3355;52.882;8.430;2023-04-07T01:41:04;18.70;;;13.47;;
6638;SDS011;3355;52.882;8.430;2023-04-07T01:43:31;16.57;;;12.33;;
6638;SDS011;3355;52.882;8.430;2023-04-07T01:45:58;16.87;;;12.47;;
6638;SDS011;3355;52.882;8.430;2023-04-07T01:48:26;16.43;;;12.53;;
6638;SDS011;3355;52.882;8.430;2023-04-07T01:50:53;14.20;;;11.70;;
6638;SDS011;3355;52.882;8.430;2023-04-07T01:53:21;14.70;;;12.37;;
6638;SDS011;3355;52.882;8.430;2023-04-07T01:55:48;13.33;;;11.63;;
6638;SDS011;3355;52.882;8.430;2023-04-07T01:58:16;14.93;;;10.97;;
6638;SDS011;3355;52.882;8.430;2023-04-07T02:00:42;15.87;;;12.17;;
6638;SDS011;3355;52.882;8.430;2023-04-07T02:03:10;17.27;;;12.10;;
6638;SDS011;3355;52.882;8.430;2023-04-07T02:05:46;18.17;;;12.67;;
6638;SDS011;3355;52.882;8.430;2023-04-07T02:08:13;13.43;;;11.37;;
6638;SDS011;3355;52.882;8.430;2023-04-07T02:10:42;14.80;;;12.20;;
6638;SDS011;3355;52.882;8.430;2023-04-07T02:13:09;13.70;;;10.83;;
6638;SDS011;3355;52.882;8.430;2023-04-07T02:15:41;18.20;;;12.00;;
6638;SDS011;3355;52.882;8.430;2023-04-07T02:18:09;14.93;;;12.20;;
6638;SDS011;3355;52.882;8.430;2023-04-07T02:20:38;15.50;;;11.27;;
6638;SDS011;3355;52.882;8.430;2023-04-07T02:23:08;13.40;;;10.93;;
6638;SDS011;3355;52.882;8.430;2023-04-07T02:25:35;16.87;;;11.90;;
6638;SDS011;3355;52.882;8.430;2023-04-07T02:28:03;15.23;;;11.00;;
6638;SDS011;3355;52.882;8.430;2023-04-07T02:30:30;17.03;;;11.23;;
6638;SDS011;3355;52.882;8.430;2023-04-07T02:32:57;12.37;;;11.03;;
6638;SDS011;3355;52.882;8.430;2023-04-07T02:35:24;15.33;;;11.03;;
6638;SDS011;3355;52.882;8.430;2023-04-07T02:37:50;11.83;;;10.40;;
6638;SDS011;3355;52.882;8.430;2023-04-07T02:40:19;13.40;;;9.90;;
6638;SDS011;3355;52.882;8.430;2023-04-07T02:42:45;15.60;;;11.13;;
6638;SDS011;3355;52.882;8.430;2023-04-07T02:45:12;14.63;;;9.80;;
6638;SDS011;3355;52.882;8.430;2023-04-07T02:47:39;17.17;;;12.97;;
6638;SDS011;3355;52.882;8.430;2023-04-07T02:50:06;12.27;;;9.93;;
6638;SDS011;3355;52.882;8.430;2023-04-07T02:52:33;12.23;;;10.13;;
6638;SDS011;3355;52.882;8.430;2023-04-07T02:55:00;14.83;;;10.73;;
6638;SDS011;3355;52.882;8.430;2023-04-07T02:57:28;11.77;;;10.40;;
6638;SDS011;3355;52.882;8.430;2023-04-07T02:59:54;12.53;;;10.60;;
6638;SDS011;3355;52.882;8.430;2023-04-07T03:02:22;13.00;;;10.30;;
6638;SDS011;3355;52.882;8.430;2023-04-07T03:04:49;14.37;;;11.70;;
6638;SDS011;3355;52.882;8.430;2023-04-07T03:07:16;14.10;;;10.07;;
6638;SDS011;3355;52.882;8.430;2023-04-07T03:09:43;12.47;;;10.63;;
6638;SDS011;3355;52.882;8.430;2023-04-07T03:12:10;14.13;;;10.10;;
6638;SDS011;3355;52.882;8.430;2023-04-07T03:14:38;12.57;;;10.30;;
6638;SDS011;3355;52.882;8.430;2023-04-07T03:17:05;14.37;;;10.77;;
6638;SDS011;3355;52.882;8.430;2023-04-07T03:19:31;13.97;;;10.37;;
6638;SDS011;3355;52.882;8.430;2023-04-07T03:21:58;11.73;;;9.97;;
6638;SDS011;3355;52.882;8.430;2023-04-07T03:24:25;11.30;;;10.10;;
6638;SDS011;3355;52.882;8.430;2023-04-07T03:26:51;21.60;;;10.30;;
6638;SDS011;3355;52.882;8.430;2023-04-07T03:29:18;13.30;;;10.80;;
6638;SDS011;3355;52.882;8.430;2023-04-07T03:31:46;12.90;;;10.30;;
6638;SDS011;3355;52.882;8.430;2023-04-07T03:34:13;13.27;;;9.10;;
6638;SDS011;3355;52.882;8.430;2023-04-07T03:36:40;12.23;;;10.13;;
6638;SDS011;3355;52.882;8.430;2023-04-07T03:39:06;15.83;;;10.07;;
6638;SDS011;3355;52.882;8.430;2023-04-07T03:41:33;14.10;;;11.63;;
6638;SDS011;3355;52.882;8.430;2023-04-07T03:44:00;14.70;;;10.60;;
6638;SDS011;3355;52.882;8.430;2023-04-07T03:46:26;12.13;;;10.13;;
6638;SDS011;3355;52.882;8.430;2023-04-07T03:48:54;14.63;;;10.80;;
6638;SDS011;3355;52.882;8.430;2023-04-07T03:51:21;14.27;;;10.30;;
6638;SDS011;3355;52.882;8.430;2023-04-07T03:53:47;13.40;;;11.10;;
6638;SDS011;3355;52.882;8.430;2023-04-07T03:56:14;11.33;;;9.47;;
6638;SDS011;3355;52.882;8.430;2023-04-07T03:58:41;12.80;;;10.67;;
6638;SDS011;3355;52.882;8.430;2023-04-07T04:01:08;11.50;;;9.67;;
6638;SDS011;3355;52.882;8.430;2023-04-07T04:03:35;11.33;;;9.97;;
6638;SDS011;3355;52.882;8.430;2023-04-07T04:06:03;13.40;;;9.43;;
6638;SDS011;3355;52.882;8.430;2023-04-07T04:08:30;10.97;;;9.67;;
6638;SDS011;3355;52.882;8.430;2023-04-07T04:10:57;12.30;;;10.33;;
6638;SDS011;3355;52.882;8.430;2023-04-07T04:13:24;15.93;;;10.27;;
6638;SDS011;3355;52.882;8.430;2023-04-07T04:15:51;15.10;;;10.47;;
6638;SDS011;3355;52.882;8.430;2023-04-07T04:18:17;14.40;;;10.47;;
6638;SDS011;3355;52.882;8.430;2023-04-07T04:20:44;14.77;;;11.10;;
6638;SDS011;3355;52.882;8.430;2023-04-07T04:23:13;14.10;;;10.37;;
6638;SDS011;3355;52.882;8.430;2023-04-07T04:25:40;15.97;;;9.87;;
6638;SDS011;3355;52.882;8.430;2023-04-07T04:28:06;13.90;;;9.80;;
6638;SDS011;3355;52.882;8.430;2023-04-07T04:30:33;12.60;;;10.53;;
6638;SDS011;3355;52.882;8.430;2023-04-07T04:33:00;13.00;;;10.20;;
6638;SDS011;3355;52.882;8.430;2023-04-07T04:35:27;13.40;;;10.87;;
6638;SDS011;3355;52.882;8.430;2023-04-07T04:37:53;14.90;;;9.30;;
6638;SDS011;3355;52.882;8.430;2023-04-07T04:40:21;11.93;;;9.10;;
6638;SDS011;3355;52.882;8.430;2023-04-07T04:42:48;12.93;;;9.63;;
6638;SDS011;3355;52.882;8.430;2023-04-07T04:45:15;12.17;;;10.87;;
6638;SDS011;3355;52.882;8.430;2023-04-07T04:47:42;14.40;;;10.07;;
6638;SDS011;3355;52.882;8.430;2023-04-07T04:50:09;11.67;;;9.70;;
6638;SDS011;3355;52.882;8.430;2023-04-07T04:52:35;11.13;;;9.67;;
6638;SDS011;3355;52.882;8.430;2023-04-07T04:55:03;11.67;;;9.17;;
6638;SDS011;3355;52.882;8.430;2023-04-07T04:57:32;11.83;;;9.63;;
6638;SDS011;3355;52.882;8.430;2023-04-07T05:00:00;15.77;;;11.07;;
6638;SDS011;3355;52.882;8.430;2023-04-07T05:02:28;11.53;;;9.10;;
6638;SDS011;3355;52.882;8.430;2023-04-07T05:04:54;13.03;;;9.23;;
6638;SDS011;3355;52.882;8.430;2023-04-07T05:07:21;10.60;;;8.77;;
6638;SDS011;3355;52.882;8.430;2023-04-07T05:09:48;11.23;;;9.20;;
6638;SDS011;3355;52.882;8.430;2023-04-07T05:12:14;12.30;;;9.30;;
6638;SDS011;3355;52.882;8.430;2023-04-07T05:14:42;14.27;;;10.90;;
6638;SDS011;3355;52.882;8.430;2023-04-07T05:17:09;13.33;;;10.17;;
6638;SDS011;3355;52.882;8.430;2023-04-07T05:19:35;10.03;;;8.93;;
6638;SDS011;3355;52.882;8.430;2023-04-07T05:22:02;10.67;;;9.57;;
6638;SDS011;3355;52.882;8.430;2023-04-07T05:24:29;13.43;;;9.57;;
6638;SDS011;3355;52.882;8.430;2023-04-07T05:26:56;15.97;;;10.20;;
6638;SDS011;3355;52.882;8.430;2023-04-07T05:29:22;11.10;;;9.50;;
6638;SDS011;3355;52.882;8.430;2023-04-07T05:31:50;12.83;;;9.67;;
6638;SDS011;3355;52.882;8.430;2023-04-07T05:34:17;12.57;;;9.43;;
6638;SDS011;3355;52.882;8.430;2023-04-07T05:36:44;11.80;;;10.40;;
6638;SDS011;3355;52.882;8.430;2023-04-07T05:39:10;11.17;;;9.40;;
6638;SDS011;3355;52.882;8.430;2023-04-07T05:41:37;11.63;;;9.77;;
6638;SDS011;3355;52.882;8.430;2023-04-07T05:44:03;10.50;;;9.10;;
6638;SDS011;3355;52.882;8.430;2023-04-07T05:46:31;11.10;;;9.83;;
6638;SDS011;3355;52.882;8.430;2023-04-07T05:48:59;12.77;;;10.30;;
6638;SDS011;3355;52.882;8.430;2023-04-07T05:51:26;15.70;;;10.57;;
6638;SDS011;3355;52.882;8.430;2023-04-07T05:53:52;11.23;;;9.30;;
6638;SDS011;3355;52.882;8.430;2023-04-07T05:56:19;17.27;;;11.37;;
6638;SDS011;3355;52.882;8.430;2023-04-07T05:58:47;10.87;;;9.63;;
6638;SDS011;3355;52.882;8.430;2023-04-07T06:01:13;12.83;;;10.60;;
6638;SDS011;3355;52.882;8.430;2023-04-07T06:03:40;10.13;;;8.50;;
6638;SDS011;3355;52.882;8.430;2023-04-07T06:06:08;11.93;;;9.33;;
6638;SDS011;3355;52.882;8.430;2023-04-07T06:08:35;12.37;;;9.90;;
6638;SDS011;3355;52.882;8.430;2023-04-07T06:11:01;12.63;;;10.07;;
6638;SDS011;3355;52.882;8.430;2023-04-07T06:13:28;11.17;;;10.00;;
6638;SDS011;3355;52.882;8.430;2023-04-07T06:15:55;10.30;;;9.20;;
6638;SDS011;3355;52.882;8.430;2023-04-07T06:18:21;13.00;;;10.70;;
6638;SDS011;3355;52.882;8.430;2023-04-07T06:20:48;10.70;;;8.73;;
6638;SDS011;3355;52.882;8.430;2023-04-07T06:23:16;12.17;;;10.23;;
6638;SDS011;3355;52.882;8.430;2023-04-07T06:25:43;11.07;;;9.30;;
6638;SDS011;3355;52.882;8.430;2023-04-07T06:28:10;12.27;;;10.17;;
6638;SDS011;3355;52.882;8.430;2023-04-07T06:30:36;11.67;;;10.30;;
6638;SDS011;3355;52.882;8.430;2023-04-07T06:33:04;12.50;;;10.20;;
6638;SDS011;3355;52.882;8.430;2023-04-07T06:35:31;10.70;;;9.30;;
6638;SDS011;3355;52.882;8.430;2023-04-07T06:37:58;10.33;;;9.20;;
6638;SDS011;3355;52.882;8.430;2023-04-07T06:40:26;11.07;;;8.60;;
6638;SDS011;3355;52.882;8.430;2023-04-07T06:42:53;9.70;;;8.70;;
6638;SDS011;3355;52.882;8.430;2023-04-07T06:45:21;11.83;;;9.93;;
6638;SDS011;3355;52.882;8.430;2023-04-07T06:47:47;11.90;;;8.67;;
6638;SDS011;3355;52.882;8.430;2023-04-07T06:50:14;16.00;;;9.77;;
6638;SDS011;3355;52.882;8.430;2023-04-07T06:52:44;11.57;;;9.33;;
6638;SDS011;3355;52.882;8.430;2023-04-07T06:55:11;14.63;;;9.60;;
6638;SDS011;3355;52.882;8.430;2023-04-07T06:57:39;13.90;;;11.00;;
6638;SDS011;3355;52.882;8.430;2023-04-07T07:00:06;10.40;;;9.40;;
6638;SDS011;3355;52.882;8.430;2023-04-07T07:02:34;11.07;;;8.97;;
6638;SDS011;3355;52.882;8.430;2023-04-07T07:05:00;10.80;;;9.70;;
6638;SDS011;3355;52.882;8.430;2023-04-07T07:07:28;10.80;;;9.70;;
6638;SDS011;3355;52.882;8.430;2023-04-07T07:09:55;11.13;;;9.93;;
6638;SDS011;3355;52.882;8.430;2023-04-07T07:12:22;10.43;;;9.33;;
6638;SDS011;3355;52.882;8.430;2023-04-07T07:14:50;10.30;;;9.30;;
6638;SDS011;3355;52.882;8.430;2023-04-07T07:17:16;12.77;;;9.57;;
6638;SDS011;3355;52.882;8.430;2023-04-07T07:19:43;9.50;;;8.60;;
6638;SDS011;3355;52.882;8.430;2023-04-07T07:22:09;10.67;;;9.60;;
6638;SDS011;3355;52.882;8.430;2023-04-07T07:24:36;12.50;;;10.30;;
6638;SDS011;3355;52.882;8.430;2023-04-07T07:27:03;12.70;;;9.93;;
6638;SDS011;3355;52.882;8.430;2023-04-07T07:29:30;11.47;;;10.27;;
6638;SDS011;3355;52.882;8.430;2023-04-07T07:31:59;11.00;;;9.90;;
6638;SDS011;3355;52.882;8.430;2023-04-07T07:34:31;11.40;;;9.40;;
6638;SDS011;3355;52.882;8.430;2023-04-07T07:37:01;11.17;;;9.77;;
6638;SDS011;3355;52.882;8.430;2023-04-07T07:39:27;11.23;;;9.40;;
6638;SDS011;3355;52.882;8.430;2023-04-07T07:41:55;12.20;;;10.07;;
6638;SDS011;3355;52.882;8.430;2023-04-07T07:44:21;10.63;;;9.53;;
6638;SDS011;3355;52.882;8.430;2023-04-07T07:46:49;10.43;;;9.33;;
6638;SDS011;3355;52.882;8.430;2023-04-07T07:49:17;13.43;;;9.60;;
6638;SDS011;3355;52.882;8.430;2023-04-07T07:51:44;10.00;;;9.00;;
6638;SDS011;3355;52.882;8.430;2023-04-07T07:54:11;12.13;;;9.07;;
6638;SDS011;3355;52.882;8.430;2023-04-07T07:56:39;11.80;;;10.50;;
6638;SDS011;3355;52.882;8.430;2023-04-07T07:59:06;9.90;;;8.90;;
6638;SDS011;3355;52.882;8.430;2023-04-07T08:01:36;11.23;;;9.37;;
6638;SDS011;3355;52.882;8.430;2023-04-07T08:04:02;10.27;;;8.97;;
6638;SDS011;3355;52.882;8.430;2023-04-07T08:06:33;10.37;;;9.23;;
6638;SDS011;3355;52.882;8.430;2023-04-07T08:09:01;9.30;;;8.37;;
6638;SDS011;3355;52.882;8.430;2023-04-07T08:11:28;10.87;;;9.67;;
6638;SDS011;3355;52.882;8.430;2023-04-07T08:13:54;11.97;;;9.57;;
6638;SDS011;3355;52.882;8.430;2023-04-07T08:16:21;11.53;;;8.23;;
6638;SDS011;3355;52.882;8.430;2023-04-07T08:18:48;10.90;;;9.50;;
6638;SDS011;3355;52.882;8.430;2023-04-07T08:21:15;11.50;;;9.60;;
6638;SDS011;3355;52.882;8.430;2023-04-07T08:23:45;10.87;;;9.77;;
6638;SDS011;3355;52.882;8.430;2023-04-07T08:26:11;10.40;;;9.27;;
6638;SDS011;3355;52.882;8.430;2023-04-07T08:28:38;11.43;;;8.90;;
6638;SDS011;3355;52.882;8.430;2023-04-07T08:31:05;10.37;;;8.50;;
6638;SDS011;3355;52.882;8.430;2023-04-07T08:33:32;11.90;;;8.57;;
6638;SDS011;3355;52.882;8.430;2023-04-07T08:35:59;11.07;;;9.93;;
6638;SDS011;3355;52.882;8.430;2023-04-07T08:38:25;10.63;;;9.47;;
6638;SDS011;3355;52.882;8.430;2023-04-07T08:40:56;14.63;;;9.20;;
6638;SDS011;3355;52.882;8.430;2023-04-07T08:43:26;13.27;;;9.70;;
6638;SDS011;3355;52.882;8.430;2023-04-07T08:45:54;13.03;;;10.73;;
6638;SDS011;3355;52.882;8.430;2023-04-07T08:48:22;11.87;;;8.37;;
6638;SDS011;3355;52.882;8.430;2023-04-07T08:50:51;10.90;;;9.37;;
6638;SDS011;3355;52.882;8.430;2023-04-07T08:53:19;11.10;;;9.77;;
6638;SDS011;3355;52.882;8.430;2023-04-07T08:55:49;10.67;;;9.57;;
6638;SDS011;3355;52.882;8.430;2023-04-07T08:58:18;10.77;;;9.67;;
6638;SDS011;3355;52.882;8.430;2023-04-07T09:00:45;10.67;;;9.57;;
6638;SDS011;3355;52.882;8.430;2023-04-07T09:03:13;10.27;;;9.23;;
6638;SDS011;3355;52.882;8.430;2023-04-07T09:05:42;10.70;;;8.83;;
6638;SDS011;3355;52.882;8.430;2023-04-07T09:08:10;12.67;;;10.40;;
6638;SDS011;3355;52.882;8.430;2023-04-07T09:10:37;9.93;;;8.93;;
6638;SDS011;3355;52.882;8.430;2023-04-07T09:13:03;12.53;;;11.30;;
6638;SDS011;3355;52.882;8.430;2023-04-07T09:15:32;11.40;;;10.20;;
6638;SDS011;3355;52.882;8.430;2023-04-07T09:17:59;11.70;;;10.50;;
6638;SDS011;3355;52.882;8.430;2023-04-07T09:20:25;10.37;;;9.07;;
6638;SDS011;3355;52.882;8.430;2023-04-07T09:22:52;10.17;;;9.20;;
6638;SDS011;3355;52.882;8.430;2023-04-07T09:25:20;11.37;;;9.33;;
6638;SDS011;3355;52.882;8.430;2023-04-07T09:27:57;11.47;;;9.60;;
6638;SDS011;3355;52.882;8.430;2023-04-07T09:30:24;12.70;;;9.80;;
6638;SDS011;3355;52.882;8.430;2023-04-07T09:32:53;10.67;;;9.63;;
6638;SDS011;3355;52.882;8.430;2023-04-07T09:35:20;9.57;;;8.60;;
6638;SDS011;3355;52.882;8.430;2023-04-07T09:37:59;10.33;;;8.93;;
6638;SDS011;3355;52.882;8.430;2023-04-07T09:40:27;10.23;;;9.20;;
6638;SDS011;3355;52.882;8.430;2023-04-07T09:42:54;10.70;;;9.63;;
6638;SDS011;3355;52.882;8.430;2023-04-07T09:45:23;10.63;;;8.60;;
6638;SDS011;3355;52.882;8.430;2023-04-07T09:47:50;10.10;;;9.10;;
6638;SDS011;3355;52.882;8.430;2023-04-07T09:50:30;10.33;;;8.13;;
6638;SDS011;3355;52.882;8.430;2023-04-07T09:52:59;9.20;;;8.30;;
6638;SDS011;3355;52.882;8.430;2023-04-07T09:55:27;9.60;;;8.70;;
6638;SDS011;3355;52.882;8.430;2023-04-07T09:57:54;10.30;;;9.20;;
6638;SDS011;3355;52.882;8.430;2023-04-07T10:00:21;9.93;;;8.73;;
6638;SDS011;3355;52.882;8.430;2023-04-07T10:02:49;9.53;;;8.60;;
6638;SDS011;3355;52.882;8.430;2023-04-07T10:05:17;10.63;;;9.50;;
6638;SDS011;3355;52.882;8.430;2023-04-07T10:07:46;10.17;;;9.17;;
6638;SDS011;3355;52.882;8.430;2023-04-07T10:10:13;11.20;;;9.33;;
6638;SDS011;3355;52.882;8.430;2023-04-07T10:12:40;10.10;;;9.10;;
6638;SDS011;3355;52.882;8.430;2023-04-07T10:15:07;11.60;;;8.60;;
6638;SDS011;3355;52.882;8.430;2023-04-07T10:17:34;10.50;;;9.00;;
6638;SDS011;3355;52.882;8.430;2023-04-07T10:20:01;11.73;;;9.00;;
6638;SDS011;3355;52.882;8.430;2023-04-07T10:22:30;13.47;;;9.00;;
6638;SDS011;3355;52.882;8.430;2023-04-07T10:24:59;9.27;;;8.37;;
6638;SDS011;3355;52.882;8.430;2023-04-07T10:27:30;10.47;;;9.10;;
6638;SDS011;3355;52.882;8.430;2023-04-07T10:29:57;10.93;;;8.80;;
6638;SDS011;3355;52.882;8.430;2023-04-07T10:32:25;9.13;;;8.23;;
6638;SDS011;3355;52.882;8.430;2023-04-07T10:34:55;10.80;;;9.70;;
6638;SDS011;3355;52.882;8.430;2023-04-07T10:37:25;10.47;;;8.60;;
6638;SDS011;3355;52.882;8.430;2023-04-07T10:42:53;10.80;;;9.13;;
6638;SDS011;3355;52.882;8.430;2023-04-07T10:48:20;9.47;;;7.83;;
6638;SDS011;3355;52.882;8.430;2023-04-07T10:51:10;8.50;;;7.57;;
6638;SDS011;3355;52.882;8.430;2023-04-07T10:57:03;10.33;;;9.33;;
6638;SDS011;3355;52.882;8.430;2023-04-07T10:59:36;8.70;;;7.80;;
6638;SDS011;3355;52.882;8.430;2023-04-07T11:04:56;9.37;;;8.10;;
6638;SDS011;3355;52.882;8.430;2023-04-07T11:10:14;9.10;;;7.77;;
6638;SDS011;3355;52.882;8.430;2023-04-07T11:12:41;10.17;;;8.07;;
6638;SDS011;3355;52.882;8.430;2023-04-07T11:15:18;10.63;;;8.40;;
6638;SDS011;3355;52.882;8.430;2023-04-07T11:17:46;9.87;;;8.53;;
6638;SDS011;3355;52.882;8.430;2023-04-07T11:20:39;12.93;;;8.70;;
6638;SDS011;3355;52.882;8.430;2023-04-07T11:23:06;10.30;;;8.10;;
6638;SDS011;3355;52.882;8.430;2023-04-07T11:25:33;8.60;;;7.57;;
6638;SDS011;3355;52.882;8.430;2023-04-07T11:28:02;8.70;;;7.80;;
6638;SDS011;3355;52.882;8.430;2023-04-07T11:30:30;8.77;;;7.87;;
6638;SDS011;3355;52.882;8.430;2023-04-07T11:32:57;9.67;;;8.53;;
6638;SDS011;3355;52.882;8.430;2023-04-07T11:35:24;14.73;;;8.70;;
6638;SDS011;3355;52.882;8.430;2023-04-07T11:37:56;11.33;;;8.00;;
6638;SDS011;3355;52.882;8.430;2023-04-07T11:40:30;9.10;;;8.20;;
6638;SDS011;3355;52.882;8.430;2023-04-07T11:42:58;9.60;;;8.60;;
6638;SDS011;3355;52.882;8.430;2023-04-07T11:45:25;8.30;;;7.50;;
6638;SDS011;3355;52.882;8.430;2023-04-07T11:47:53;9.83;;;8.23;;
6638;SDS011;3355;52.882;8.430;2023-04-07T11:53:05;8.83;;;8.00;;
6638;SDS011;3355;52.882;8.430;2023-04-07T11:55:31;12.10;;;8.30;;
6638;SDS011;3355;52.882;8.430;2023-04-07T11:58:04;9.50;;;7.47;;
6638;SDS011;3355;52.882;8.430;2023-04-07T12:00:31;10.93;;;8.70;;
6638;SDS011;3355;52.882;8.430;2023-04-07T12:03:08;9.43;;;7.47;;
6638;SDS011;3355;52.882;8.430;2023-04-07T12:05:41;8.27;;;7.33;;
6638;SDS011;3355;52.882;8.430;2023-04-07T12:08:09;8.67;;;7.77;;
6638;SDS011;3355;52.882;8.430;2023-04-07T12:10:35;9.40;;;8.20;;
6638;SDS011;3355;52.882;8.430;2023-04-07T12:13:05;8.50;;;7.60;;
6638;SDS011;3355;52.882;8.430;2023-04-07T12:15:32;8.70;;;7.20;;
6638;SDS011;3355;52.882;8.430;2023-04-07T12:17:59;9.40;;;7.87;;
6638;SDS011;3355;52.882;8.430;2023-04-07T12:20:28;9.70;;;8.13;;
6638;SDS011;3355;52.882;8.430;2023-04-07T12:22:54;9.10;;;7.80;;
6638;SDS011;3355;52.882;8.430;2023-04-07T12:25:21;8.60;;;7.53;;
6638;SDS011;3355;52.882;8.430;2023-04-07T12:27:48;9.10;;;7.30;;
6638;SDS011;3355;52.882;8.430;2023-04-07T12:30:15;9.93;;;7.70;;
6638;SDS011;3355;52.882;8.430;2023-04-07T12:32:41;7.53;;;6.73;;
6638;SDS011;3355;52.882;8.430;2023-04-07T12:35:08;9.63;;;7.70;;
6638;SDS011;3355;52.882;8.430;2023-04-07T12:37:38;9.73;;;8.07;;
6638;SDS011;3355;52.882;8.430;2023-04-07T12:40:08;11.17;;;6.97;;
6638;SDS011;3355;52.882;8.430;2023-04-07T12:42:36;8.83;;;7.40;;
6638;SDS011;3355;52.882;8.430;2023-04-07T12:45:03;8.00;;;7.20;;
6638;SDS011;3355;52.882;8.430;2023-04-07T12:47:30;7.47;;;6.77;;
6638;SDS011;3355;52.882;8.430;2023-04-07T12:49:57;9.33;;;7.23;;
6638;SDS011;3355;52.882;8.430;2023-04-07T12:52:24;8.67;;;6.60;;
6638;SDS011;3355;52.882;8.430;2023-04-07T12:54:52;7.63;;;6.80;;
6638;SDS011;3355;52.882;8.430;2023-04-07T12:57:19;9.33;;;7.30;;
6638;SDS011;3355;52.882;8.430;2023-04-07T12:59:46;10.20;;;8.03;;
6638;SDS011;3355;52.882;8.430;2023-04-07T13:02:13;8.07;;;6.87;;
6638;SDS011;3355;52.882;8.430;2023-04-07T13:04:42;7.53;;;6.73;;
6638;SDS011;3355;52.882;8.430;2023-04-07T13:07:10;8.07;;;6.70;;
6638;SDS011;3355;52.882;8.430;2023-04-07T13:09:37;9.37;;;7.40;;
6638;SDS011;3355;52.882;8.430;2023-04-07T13:12:05;8.20;;;6.90;;
6638;SDS011;3355;52.882;8.430;2023-04-07T13:14:32;7.67;;;6.50;;
6638;SDS011;3355;52.882;8.430;2023-04-07T13:16:59;7.33;;;6.53;;
6638;SDS011;3355;52.882;8.430;2023-04-07T13:19:25;6.60;;;5.77;;
6638;SDS011;3355;52.882;8.430;2023-04-07T13:21:52;8.93;;;6.93;;
6638;SDS011;3355;52.882;8.430;2023-04-07T13:24:19;8.50;;;7.23;;
6638;SDS011;3355;52.882;8.430;2023-04-07T13:26:46;8.87;;;6.93;;
6638;SDS011;3355;52.882;8.430;2023-04-07T13:29:14;8.50;;;6.83;;
6638;SDS011;3355;52.882;8.430;2023-04-07T13:31:41;7.33;;;6.23;;
6638;SDS011;3355;52.882;8.430;2023-04-07T13:34:10;8.27;;;7.47;;
6638;SDS011;3355;52.882;8.430;2023-04-07T13:36:37;7.80;;;7.00;;
6638;SDS011;3355;52.882;8.430;2023-04-07T13:39:03;8.50;;;6.67;;
6638;SDS011;3355;52.882;8.430;2023-04-07T13:41:30;8.07;;;6.40;;
6638;SDS011;3355;52.882;8.430;2023-04-07T13:43:57;9.43;;;7.10;;
6638;SDS011;3355;52.882;8.430;2023-04-07T13:46:26;7.90;;;6.50;;
6638;SDS011;3355;52.882;8.430;2023-04-07T13:48:53;7.07;;;6.37;;
6638;SDS011;3355;52.882;8.430;2023-04-07T13:51:20;7.37;;;6.47;;
6638;SDS011;3355;52.882;8.430;2023-04-07T13:53:47;7.13;;;6.43;;
6638;SDS011;3355;52.882;8.430;2023-04-07T13:56:14;7.57;;;6.30;;
6638;SDS011;3355;52.882;8.430;2023-04-07T13:58:40;7.90;;;6.50;;
6638;SDS011;3355;52.882;8.430;2023-04-07T14:01:07;8.13;;;7.07;;
6638;SDS011;3355;52.882;8.430;2023-04-07T14:03:35;7.20;;;6.20;;
6638;SDS011;3355;52.882;8.430;2023-04-07T14:06:02;7.33;;;6.50;;
6638;SDS011;3355;52.882;8.430;2023-04-07T14:08:29;7.83;;;6.30;;
6638;SDS011;3355;52.882;8.430;2023-04-07T14:10:56;6.67;;;5.97;;
6638;SDS011;3355;52.882;8.430;2023-04-07T14:13:22;9.43;;;7.40;;
6638;SDS011;3355;52.882;8.430;2023-04-07T14:15:49;7.30;;;6.50;;
6638;SDS011;3355;52.882;8.430;2023-04-07T14:18:17;7.20;;;6.50;;
6638;SDS011;3355;52.882;8.430;2023-04-07T14:20:45;7.40;;;6.57;;
6638;SDS011;3355;52.882;8.430;2023-04-07T14:23:12;9.37;;;6.27;;
6638;SDS011;3355;52.882;8.430;2023-04-07T14:25:38;7.17;;;6.17;;
6638;SDS011;3355;52.882;8.430;2023-04-07T14:28:06;8.30;;;6.23;;
6638;SDS011;3355;52.882;8.430;2023-04-07T14:30:34;8.87;;;7.03;;
6638;SDS011;3355;52.882;8.430;2023-04-07T14:33:02;7.53;;;6.57;;
6638;SDS011;3355;52.882;8.430;2023-04-07T14:35:29;10.93;;;7.17;;
6638;SDS011;3355;52.882;8.430;2023-04-07T14:37:57;8.80;;;6.70;;
6638;SDS011;3355;52.882;8.430;2023-04-07T14:40:24;9.20;;;6.50;;
6638;SDS011;3355;52.882;8.430;2023-04-07T14:42:51;7.90;;;5.97;;
6638;SDS011;3355;52.882;8.430;2023-04-07T14:45:17;7.93;;;6.13;;
6638;SDS011;3355;52.882;8.430;2023-04-07T14:47:44;6.70;;;5.93;;
6638;SDS011;3355;52.882;8.430;2023-04-07T14:50:11;5.80;;;5.10;;
6638;SDS011;3355;52.882;8.430;2023-04-07T14:52:38;6.30;;;5.17;;
6638;SDS011;3355;52.882;8.430;2023-04-07T14:55:06;6.47;;;5.57;;
6638;SDS011;3355;52.882;8.430;2023-04-07T14:57:33;6.53;;;5.87;;
6638;SDS011;3355;52.882;8.430;2023-04-07T15:00:03;6.53;;;5.80;;
6638;SDS011;3355;52.882;8.430;2023-04-07T15:02:31;6.23;;;5.23;;
6638;SDS011;3355;52.882;8.430;2023-04-07T15:04:58;5.90;;;5.30;;
6638;SDS011;3355;52.882;8.430;2023-04-07T15:07:24;5.70;;;5.03;;
6638;SDS011;3355;52.882;8.430;2023-04-07T15:09:51;7.20;;;6.40;;
6638;SDS011;3355;52.882;8.430;2023-04-07T15:12:19;7.30;;;6.27;;
6638;SDS011;3355;52.882;8.430;2023-04-07T15:14:49;6.40;;;5.60;;
6638;SDS011;3355;52.882;8.430;2023-04-07T15:17:16;6.87;;;5.47;;
6638;SDS011;3355;52.882;8.430;2023-04-07T15:19:42;7.10;;;5.90;;
6638;SDS011;3355;52.882;8.430;2023-04-07T15:22:09;7.67;;;5.63;;